PWSweather.com
Personal Weather Stations
Station Observations
KAKFAIRB47
Old Steese Highway North, Fairbanks, AK 99712

Old Steese Highway NorthFairbanks, AK 99712

Lat: 64.885712, Lon: -147.640925

Elevation: 723

Station Type: Fine Offset (Wh 1080, etc)

Latest ConditionsUpdated 10:05:01 PM AKST Monday, Jun 26, 2017
Currently Today's Max Today's Min Today's Average
Temperature 62.6°F17.0°C 79.5°F26.4°C 48.2°F9.0°C 64.0°F17.8°C
Dew Point 51.5°F10.8°C 53.2°F11.8°C 26.9°F-2.8°C 43.9°F6.6°C
Winds 1.6 mph S2.6 kmh S 5.4 mph W8.7 kmh W - 1.0 mph 1.6 kmh
Wind Gusts 6.0 mph9.7 kmh 9.8 mph15.8 kmh - -
Humidity 67% 100% 17% 57%
Pressure 29.81 in1009.5 mb 29.91 in1012.9 mb 29.78 in1008.5 mb -
Hour Temp Dew Point Humidity Winds Wind Gusts Pressure Precip Precip Rate Daily Precip Total
10:05 PM 62.6°F17.0°C 51.5°F10.8°C 67% 1.6 mph S2.6 kmh S 6.0 mph9.7 kmh 29.81 in1009.5 mb 0.00 in0.0 mm 0.00 in0.0 mm 0.00 in0.0 mm
10:00 PM 61.9°F16.6°C 53.1°F11.7°C 73% 0.7 mph SSE1.1 kmh SSE 6.0 mph9.7 kmh 29.81 in1009.5 mb 0.00 in0.0 mm 0.00 in0.0 mm 0.00 in0.0 mm
09:55 PM 62.8°F17.1°C 52.9°F11.6°C 70% Calm Calm -- 29.80 in1009.1 mb 0.00 in0.0 mm 0.00 in0.0 mm 0.00 in0.0 mm
09:50 PM 63.3°F17.4°C 51.8°F11.0°C 66% Calm Calm -- 29.81 in1009.5 mb 0.00 in0.0 mm 0.00 in0.0 mm 0.00 in0.0 mm
09:45 PM 63.9°F17.7°C 50.2°F10.1°C 61% Calm Calm -- 29.80 in1009.1 mb 0.00 in0.0 mm 0.00 in0.0 mm 0.00 in0.0 mm
09:40 PM 65.7°F18.7°C 47.1°F8.4°C 51% Calm Calm -- 29.80 in1009.1 mb 0.00 in0.0 mm 0.00 in0.0 mm 0.00 in0.0 mm
09:35 PM 65.8°F18.8°C 45.6°F7.6°C 48% Calm Calm 1.6 mph2.6 kmh 29.80 in1009.1 mb 0.00 in0.0 mm 0.00 in0.0 mm 0.00 in0.0 mm
09:30 PM 65.8°F18.8°C 45.1°F7.3°C 47% Calm Calm 1.6 mph2.6 kmh 29.80 in1009.1 mb 0.00 in0.0 mm 0.00 in0.0 mm 0.00 in0.0 mm
09:25 PM 65.5°F18.6°C 44.7°F7.1°C 47% Calm Calm 1.6 mph2.6 kmh 29.80 in1009.1 mb 0.00 in0.0 mm 0.00 in0.0 mm 0.00 in0.0 mm
09:20 PM 65.7°F18.7°C 44.3°F6.8°C 46% Calm Calm -- 29.80 in1009.1 mb 0.00 in0.0 mm 0.00 in0.0 mm 0.00 in0.0 mm
09:15 PM 65.3°F18.5°C 45.1°F7.3°C 48% Calm Calm 2.2 mph3.5 kmh 29.80 in1009.1 mb 0.00 in0.0 mm 0.00 in0.0 mm 0.00 in0.0 mm
09:10 PM 65.7°F18.7°C 44.3°F6.8°C 46% Calm Calm 2.2 mph3.5 kmh 29.80 in1009.1 mb 0.00 in0.0 mm 0.00 in0.0 mm 0.00 in0.0 mm
09:05 PM 65.8°F18.8°C 43.9°F6.6°C 45% Calm Calm 3.1 mph5.0 kmh 29.80 in1009.1 mb 0.00 in0.0 mm 0.00 in0.0 mm 0.00 in0.0 mm
09:00 PM 65.8°F18.8°C 44.5°F6.9°C 46% Calm Calm 3.1 mph5.0 kmh 29.80 in1009.1 mb 0.00 in0.0 mm 0.00 in0.0 mm 0.00 in0.0 mm
08:55 PM 65.8°F18.8°C 45.1°F7.3°C 47% 2.2 mph NE3.5 kmh NE 3.1 mph5.0 kmh 29.80 in1009.1 mb 0.00 in0.0 mm 0.00 in0.0 mm 0.00 in0.0 mm
08:50 PM 65.8°F18.8°C 46.2°F7.9°C 49% 2.2 mph NNE3.5 kmh NNE 3.8 mph6.1 kmh 29.80 in1009.1 mb 0.00 in0.0 mm 0.00 in0.0 mm 0.00 in0.0 mm
08:45 PM 65.7°F18.7°C 47.6°F8.7°C 52% 1.6 mph N2.6 kmh N 6.0 mph9.7 kmh 29.80 in1009.1 mb 0.00 in0.0 mm 0.00 in0.0 mm 0.00 in0.0 mm
08:40 PM 65.7°F18.7°C 48.1°F8.9°C 53% 2.2 mph N3.5 kmh N 6.0 mph9.7 kmh 29.80 in1009.1 mb 0.00 in0.0 mm 0.00 in0.0 mm 0.00 in0.0 mm
08:35 PM 65.1°F18.4°C 49.1°F9.5°C 56% 0.7 mph N1.1 kmh N 3.1 mph5.0 kmh 29.80 in1009.1 mb 0.00 in0.0 mm 0.00 in0.0 mm 0.00 in0.0 mm
08:30 PM 65.1°F18.4°C 49.5°F9.7°C 57% 1.6 mph N2.6 kmh N 3.1 mph5.0 kmh 29.80 in1009.1 mb 0.00 in0.0 mm 0.00 in0.0 mm 0.00 in0.0 mm
08:25 PM 65.3°F18.5°C 50.6°F10.3°C 59% Calm Calm -- 29.80 in1009.1 mb 0.00 in0.0 mm 0.00 in0.0 mm 0.00 in0.0 mm
08:20 PM 66.0°F18.9°C 49.9°F9.9°C 56% Calm Calm 1.6 mph2.6 kmh 29.80 in1009.1 mb 0.00 in0.0 mm 0.00 in0.0 mm 0.00 in0.0 mm
08:15 PM 66.0°F18.9°C 49.4°F9.7°C 55% Calm Calm 2.2 mph3.5 kmh 29.80 in1009.1 mb 0.00 in0.0 mm 0.00 in0.0 mm 0.00 in0.0 mm
08:10 PM 66.4°F19.1°C 48.2°F9.0°C 52% 0.7 mph N1.1 kmh N 2.2 mph3.5 kmh 29.80 in1009.1 mb 0.00 in0.0 mm 0.00 in0.0 mm 0.00 in0.0 mm
08:05 PM 67.5°F19.7°C 48.2°F9.0°C 50% Calm Calm -- 29.79 in1008.8 mb 0.00 in0.0 mm 0.00 in0.0 mm 0.00 in0.0 mm
08:00 PM 67.5°F19.7°C 47.7°F8.7°C 49% Calm Calm -- 29.79 in1008.8 mb 0.00 in0.0 mm 0.00 in0.0 mm 0.00 in0.0 mm
07:55 PM 67.6°F19.8°C 46.7°F8.2°C 47% Calm Calm 3.1 mph5.0 kmh 29.79 in1008.8 mb 0.00 in0.0 mm 0.00 in0.0 mm 0.00 in0.0 mm
07:50 PM 68.4°F20.2°C 46.8°F8.2°C 46% Calm Calm 3.1 mph5.0 kmh 29.79 in1008.8 mb 0.00 in0.0 mm 0.00 in0.0 mm 0.00 in0.0 mm
07:45 PM 68.4°F20.2°C 46.2°F7.9°C 45% Calm Calm 3.8 mph6.1 kmh 29.79 in1008.8 mb 0.00 in0.0 mm 0.00 in0.0 mm 0.00 in0.0 mm
07:40 PM 69.3°F20.7°C 44.6°F7.0°C 41% 2.2 mph SSW3.5 kmh SSW 3.8 mph6.1 kmh 29.79 in1008.8 mb 0.00 in0.0 mm 0.00 in0.0 mm 0.00 in0.0 mm
07:35 PM 69.4°F20.8°C 44.7°F7.1°C 41% 1.6 mph S2.6 kmh S 3.8 mph6.1 kmh 29.79 in1008.8 mb 0.00 in0.0 mm 0.00 in0.0 mm 0.00 in0.0 mm
07:30 PM 70.0°F21.1°C 43.9°F6.6°C 39% Calm Calm 3.8 mph6.1 kmh 29.78 in1008.5 mb 0.00 in0.0 mm 0.00 in0.0 mm 0.00 in0.0 mm
07:25 PM 70.5°F21.4°C 41.6°F5.3°C 35% Calm Calm 5.4 mph8.7 kmh 29.78 in1008.5 mb 0.00 in0.0 mm 0.00 in0.0 mm 0.00 in0.0 mm
07:20 PM 70.5°F21.4°C 40.8°F4.9°C 34% 3.1 mph N5.0 kmh N 5.4 mph8.7 kmh 29.79 in1008.8 mb 0.00 in0.0 mm 0.00 in0.0 mm 0.00 in0.0 mm
07:15 PM 71.6°F22.0°C 39.4°F4.1°C 31% 1.6 mph NNE2.6 kmh NNE 5.4 mph8.7 kmh 29.78 in1008.5 mb 0.00 in0.0 mm 0.00 in0.0 mm 0.00 in0.0 mm
07:10 PM 72.1°F22.3°C 39.9°F4.4°C 31% 2.2 mph NE3.5 kmh NE 6.0 mph9.7 kmh 29.79 in1008.8 mb 0.00 in0.0 mm 0.00 in0.0 mm 0.00 in0.0 mm
07:05 PM 73.2°F22.9°C 40.0°F4.4°C 30% 1.6 mph NE2.6 kmh NE 6.0 mph9.7 kmh 29.78 in1008.5 mb 0.00 in0.0 mm 0.00 in0.0 mm 0.00 in0.0 mm
07:00 PM 73.4°F23.0°C 42.6°F5.9°C 33% 4.5 mph N7.2 kmh N 5.4 mph8.7 kmh 29.78 in1008.5 mb 0.00 in0.0 mm 0.00 in0.0 mm 0.00 in0.0 mm
06:55 PM 73.4°F23.0°C 42.6°F5.9°C 33% 0.7 mph NNE1.1 kmh NNE 3.1 mph5.0 kmh 29.79 in1008.8 mb 0.00 in0.0 mm 0.00 in0.0 mm 0.00 in0.0 mm
06:50 PM 72.9°F22.7°C 42.1°F5.6°C 33% 2.2 mph ENE3.5 kmh ENE 5.4 mph8.7 kmh 29.78 in1008.5 mb 0.00 in0.0 mm 0.00 in0.0 mm 0.00 in0.0 mm
06:45 PM 72.9°F22.7°C 38.8°F3.8°C 29% 0.7 mph ESE1.1 kmh ESE 5.4 mph8.7 kmh 29.78 in1008.5 mb 0.00 in0.0 mm 0.00 in0.0 mm 0.00 in0.0 mm
06:40 PM 73.6°F23.1°C 39.4°F4.1°C 29% 2.2 mph ESE3.5 kmh ESE 3.1 mph5.0 kmh 29.78 in1008.5 mb 0.00 in0.0 mm 0.00 in0.0 mm 0.00 in0.0 mm
06:35 PM 73.9°F23.3°C 37.9°F3.3°C 27% 1.6 mph NE2.6 kmh NE 3.1 mph5.0 kmh 29.78 in1008.5 mb 0.00 in0.0 mm 0.00 in0.0 mm 0.00 in0.0 mm
06:30 PM 73.6°F23.1°C 36.6°F2.6°C 26% Calm Calm 3.1 mph5.0 kmh 29.78 in1008.5 mb 0.00 in0.0 mm 0.00 in0.0 mm 0.00 in0.0 mm
06:25 PM 73.6°F23.1°C 36.6°F2.6°C 26% 1.6 mph SE2.6 kmh SE 4.5 mph7.2 kmh 29.79 in1008.8 mb 0.00 in0.0 mm 0.00 in0.0 mm 0.00 in0.0 mm
06:20 PM 74.8°F23.8°C 37.7°F3.2°C 26% 1.6 mph ESE2.6 kmh ESE 5.4 mph8.7 kmh 29.78 in1008.5 mb 0.00 in0.0 mm 0.00 in0.0 mm 0.00 in0.0 mm
06:15 PM 75.6°F24.2°C 37.3°F2.9°C 25% 1.6 mph SE2.6 kmh SE 6.9 mph11.1 kmh 29.78 in1008.5 mb 0.00 in0.0 mm 0.00 in0.0 mm 0.00 in0.0 mm
06:10 PM 74.3°F23.5°C 37.2°F2.9°C 26% 2.2 mph SE3.5 kmh SE 6.9 mph11.1 kmh 29.78 in1008.5 mb 0.00 in0.0 mm 0.00 in0.0 mm 0.00 in0.0 mm
06:05 PM 75.7°F24.3°C 38.5°F3.6°C 26% 0.7 mph SE1.1 kmh SE 5.4 mph8.7 kmh 29.78 in1008.5 mb 0.00 in0.0 mm 0.00 in0.0 mm 0.00 in0.0 mm
06:00 PM 76.1°F24.5°C 37.8°F3.2°C 25% 2.2 mph E3.5 kmh E 5.4 mph8.7 kmh 29.79 in1008.8 mb 0.00 in0.0 mm 0.00 in0.0 mm 0.00 in0.0 mm
05:55 PM 77.0°F25.0°C 40.5°F4.7°C 27% 3.8 mph E6.1 kmh E 5.4 mph8.7 kmh 29.79 in1008.8 mb 0.00 in0.0 mm 0.00 in0.0 mm 0.00 in0.0 mm
05:50 PM 75.4°F24.1°C 39.1°F3.9°C 27% 2.2 mph SE3.5 kmh SE 7.6 mph12.2 kmh 29.79 in1008.8 mb 0.00 in0.0 mm 0.00 in0.0 mm 0.00 in0.0 mm
05:45 PM 75.6°F24.2°C 39.3°F4.1°C 27% 2.2 mph ESE3.5 kmh ESE 7.6 mph12.2 kmh 29.78 in1008.5 mb 0.00 in0.0 mm 0.00 in0.0 mm 0.00 in0.0 mm
05:40 PM 75.4°F24.1°C 40.0°F4.4°C 28% 3.1 mph ENE5.0 kmh ENE 6.0 mph9.7 kmh 29.79 in1008.8 mb 0.00 in0.0 mm 0.00 in0.0 mm 0.00 in0.0 mm
05:35 PM 75.0°F23.9°C 39.7°F4.3°C 28% 1.6 mph NE2.6 kmh NE 6.0 mph9.7 kmh 29.78 in1008.5 mb 0.00 in0.0 mm 0.00 in0.0 mm 0.00 in0.0 mm
05:30 PM 74.1°F23.4°C 40.7°F4.8°C 30% 1.6 mph NE2.6 kmh NE 6.0 mph9.7 kmh 29.78 in1008.5 mb 0.00 in0.0 mm 0.00 in0.0 mm 0.00 in0.0 mm
05:25 PM 73.0°F22.8°C 38.9°F3.8°C 29% Calm Calm 6.0 mph9.7 kmh 29.78 in1008.5 mb 0.00 in0.0 mm 0.00 in0.0 mm 0.00 in0.0 mm
05:20 PM 73.2°F22.9°C 40.0°F4.4°C 30% 1.6 mph NE2.6 kmh NE 5.4 mph8.7 kmh 29.79 in1008.8 mb 0.00 in0.0 mm 0.00 in0.0 mm 0.00 in0.0 mm
05:15 PM 72.1°F22.3°C 38.2°F3.4°C 29% Calm Calm 5.4 mph8.7 kmh 29.78 in1008.5 mb 0.00 in0.0 mm 0.00 in0.0 mm 0.00 in0.0 mm
05:10 PM 72.9°F22.7°C 39.6°F4.2°C 30% 3.1 mph NNE5.0 kmh NNE 5.4 mph8.7 kmh 29.78 in1008.5 mb 0.00 in0.0 mm 0.00 in0.0 mm 0.00 in0.0 mm
05:05 PM 72.1°F22.3°C 39.0°F3.9°C 30% 2.2 mph ENE3.5 kmh ENE 5.4 mph8.7 kmh 29.79 in1008.8 mb 0.00 in0.0 mm 0.00 in0.0 mm 0.00 in0.0 mm
05:00 PM 72.9°F22.7°C 37.9°F3.3°C 28% 3.1 mph NE5.0 kmh NE 6.9 mph11.1 kmh 29.79 in1008.8 mb 0.00 in0.0 mm 0.00 in0.0 mm 0.00 in0.0 mm
04:55 PM 74.8°F23.8°C 39.6°F4.2°C 28% 1.6 mph NNE2.6 kmh NNE 6.9 mph11.1 kmh 29.79 in1008.8 mb 0.00 in0.0 mm 0.00 in0.0 mm 0.00 in0.0 mm
04:50 PM 75.7°F24.3°C 40.4°F4.7°C 28% 3.1 mph NE5.0 kmh NE 6.0 mph9.7 kmh 29.79 in1008.8 mb 0.00 in0.0 mm 0.00 in0.0 mm 0.00 in0.0 mm
04:45 PM 75.0°F23.9°C 38.8°F3.8°C 27% 3.1 mph NE5.0 kmh NE 6.0 mph9.7 kmh 29.78 in1008.5 mb 0.00 in0.0 mm 0.00 in0.0 mm 0.00 in0.0 mm
04:40 PM 75.2°F24.0°C 38.0°F3.3°C 26% 3.1 mph NE5.0 kmh NE 9.8 mph15.8 kmh 29.79 in1008.8 mb 0.00 in0.0 mm 0.00 in0.0 mm 0.00 in0.0 mm
04:35 PM 75.0°F23.9°C 40.6°F4.8°C 29% 3.8 mph NNE6.1 kmh NNE 9.8 mph15.8 kmh 29.79 in1008.8 mb 0.00 in0.0 mm 0.00 in0.0 mm 0.00 in0.0 mm
04:30 PM 75.6°F24.2°C 39.3°F4.1°C 27% 3.8 mph NNE6.1 kmh NNE 7.6 mph12.2 kmh 29.78 in1008.5 mb 0.00 in0.0 mm 0.00 in0.0 mm 0.00 in0.0 mm
04:25 PM 75.6°F24.2°C 38.3°F3.5°C 26% 0.7 mph NNE1.1 kmh NNE 9.8 mph15.8 kmh 29.78 in1008.5 mb 0.00 in0.0 mm 0.00 in0.0 mm 0.00 in0.0 mm
04:20 PM 75.0°F23.9°C 36.8°F2.7°C 25% 2.2 mph NNE3.5 kmh NNE 9.8 mph15.8 kmh 29.78 in1008.5 mb 0.00 in0.0 mm 0.00 in0.0 mm 0.00 in0.0 mm
04:15 PM 76.3°F24.6°C 31.0°F-0.6°C 19% 3.1 mph N5.0 kmh N 6.0 mph9.7 kmh 29.79 in1008.8 mb 0.00 in0.0 mm 0.00 in0.0 mm 0.00 in0.0 mm
04:10 PM 78.3°F25.7°C 33.9°F1.1°C 20% Calm Calm 7.6 mph12.2 kmh 29.78 in1008.5 mb 0.00 in0.0 mm 0.00 in0.0 mm 0.00 in0.0 mm
04:05 PM 75.2°F24.0°C 32.6°F0.3°C 21% 4.5 mph N7.2 kmh N 7.6 mph12.2 kmh 29.78 in1008.5 mb 0.00 in0.0 mm 0.00 in0.0 mm 0.00 in0.0 mm
04:00 PM 76.3°F24.6°C 33.5°F0.8°C 21% 4.5 mph N7.2 kmh N 8.3 mph13.4 kmh 29.79 in1008.8 mb 0.00 in0.0 mm 0.00 in0.0 mm 0.00 in0.0 mm
03:55 PM 75.2°F24.0°C 32.6°F0.3°C 21% 1.6 mph N2.6 kmh N 8.3 mph13.4 kmh 29.79 in1008.8 mb 0.00 in0.0 mm 0.00 in0.0 mm 0.00 in0.0 mm
03:50 PM 76.1°F24.5°C 33.4°F0.8°C 21% 0.7 mph NW1.1 kmh NW 6.9 mph11.1 kmh 29.79 in1008.8 mb 0.00 in0.0 mm 0.00 in0.0 mm 0.00 in0.0 mm
03:45 PM 78.3°F25.7°C 31.3°F-0.4°C 18% 1.6 mph W2.6 kmh W 4.5 mph7.2 kmh 29.79 in1008.8 mb 0.00 in0.0 mm 0.00 in0.0 mm 0.00 in0.0 mm
03:40 PM 79.5°F26.4°C 33.7°F0.9°C 19% 2.2 mph NW3.5 kmh NW 6.9 mph11.1 kmh 29.79 in1008.8 mb 0.00 in0.0 mm 0.00 in0.0 mm 0.00 in0.0 mm
03:35 PM 78.3°F25.7°C 33.9°F1.1°C 20% 1.6 mph N2.6 kmh N 8.3 mph13.4 kmh 29.79 in1008.8 mb 0.00 in0.0 mm 0.00 in0.0 mm 0.00 in0.0 mm
03:30 PM 74.3°F23.5°C 31.9°F-0.1°C 21% 3.8 mph N6.1 kmh N 8.3 mph13.4 kmh 29.79 in1008.8 mb 0.00 in0.0 mm 0.00 in0.0 mm 0.00 in0.0 mm
03:25 PM 75.0°F23.9°C 32.5°F0.3°C 21% 3.1 mph NW5.0 kmh NW 5.4 mph8.7 kmh 29.79 in1008.8 mb 0.00 in0.0 mm 0.00 in0.0 mm 0.00 in0.0 mm
03:20 PM 74.5°F23.6°C 26.9°F-2.8°C 17% 2.2 mph W3.5 kmh W 9.2 mph14.8 kmh 29.80 in1009.1 mb 0.00 in0.0 mm 0.00 in0.0 mm 0.00 in0.0 mm
03:15 PM 74.5°F23.6°C 28.2°F-2.1°C 18% 3.8 mph W6.1 kmh W 9.2 mph14.8 kmh 29.80 in1009.1 mb 0.00 in0.0 mm 0.00 in0.0 mm 0.00 in0.0 mm
03:10 PM 76.3°F24.6°C 31.0°F-0.6°C 19% 2.2 mph WSW3.5 kmh WSW 6.0 mph9.7 kmh 29.80 in1009.1 mb 0.00 in0.0 mm 0.00 in0.0 mm 0.00 in0.0 mm
03:05 PM 77.5°F25.3°C 29.3°F-1.5°C 17% Calm Calm 5.4 mph8.7 kmh 29.79 in1008.8 mb 0.00 in0.0 mm 0.00 in0.0 mm 0.00 in0.0 mm
03:00 PM 76.6°F24.8°C 33.8°F1.0°C 21% 1.6 mph WNW2.6 kmh WNW 5.4 mph8.7 kmh 29.80 in1009.1 mb 0.00 in0.0 mm 0.00 in0.0 mm 0.00 in0.0 mm
02:55 PM 77.0°F25.0°C 31.6°F-0.2°C 19% 1.6 mph NW2.6 kmh NW 6.9 mph11.1 kmh 29.80 in1009.1 mb 0.00 in0.0 mm 0.00 in0.0 mm 0.00 in0.0 mm
02:50 PM 75.6°F24.2°C 32.9°F0.5°C 21% 0.7 mph NW1.1 kmh NW 6.9 mph11.1 kmh 29.80 in1009.1 mb 0.00 in0.0 mm 0.00 in0.0 mm 0.00 in0.0 mm
02:45 PM 77.4°F25.2°C 33.2°F0.7°C 20% 3.1 mph WSW5.0 kmh WSW 4.5 mph7.2 kmh 29.80 in1009.1 mb 0.00 in0.0 mm 0.00 in0.0 mm 0.00 in0.0 mm
02:40 PM 75.9°F24.4°C 34.4°F1.3°C 22% 1.6 mph WSW2.6 kmh WSW 7.6 mph12.2 kmh 29.80 in1009.1 mb 0.00 in0.0 mm 0.00 in0.0 mm 0.00 in0.0 mm
02:35 PM 74.5°F23.6°C 33.2°F0.7°C 22% 2.2 mph WSW3.5 kmh WSW 7.6 mph12.2 kmh 29.80 in1009.1 mb 0.00 in0.0 mm 0.00 in0.0 mm 0.00 in0.0 mm
02:30 PM 77.4°F25.2°C 34.4°F1.3°C 21% Calm Calm 4.5 mph7.2 kmh 29.80 in1009.1 mb 0.00 in0.0 mm 0.00 in0.0 mm 0.00 in0.0 mm
02:25 PM 77.7°F25.4°C 37.0°F2.8°C 23% 2.2 mph WSW3.5 kmh WSW 4.5 mph7.2 kmh 29.80 in1009.1 mb 0.00 in0.0 mm 0.00 in0.0 mm 0.00 in0.0 mm
02:20 PM 76.3°F24.6°C 34.7°F1.5°C 22% 1.6 mph S2.6 kmh S 4.5 mph7.2 kmh 29.81 in1009.5 mb 0.00 in0.0 mm 0.00 in0.0 mm 0.00 in0.0 mm
02:15 PM 77.0°F25.0°C 34.1°F1.2°C 21% 0.7 mph SSE1.1 kmh SSE 3.1 mph5.0 kmh 29.80 in1009.1 mb 0.00 in0.0 mm 0.00 in0.0 mm 0.00 in0.0 mm
02:10 PM 76.6°F24.8°C 35.0°F1.7°C 22% Calm Calm 3.8 mph6.1 kmh 29.81 in1009.5 mb 0.00 in0.0 mm 0.00 in0.0 mm 0.00 in0.0 mm
02:05 PM 75.2°F24.0°C 36.0°F2.2°C 24% Calm Calm 5.4 mph8.7 kmh 29.81 in1009.5 mb 0.00 in0.0 mm 0.00 in0.0 mm 0.00 in0.0 mm
02:00 PM 73.6°F23.1°C 33.5°F0.8°C 23% 2.2 mph SW3.5 kmh SW 5.4 mph8.7 kmh 29.80 in1009.1 mb 0.00 in0.0 mm 0.00 in0.0 mm 0.00 in0.0 mm
01:55 PM 75.2°F24.0°C 34.9°F1.6°C 23% 3.8 mph SSW6.1 kmh SSW 5.4 mph8.7 kmh 29.81 in1009.5 mb 0.00 in0.0 mm 0.00 in0.0 mm 0.00 in0.0 mm
01:50 PM 76.5°F24.7°C 38.1°F3.4°C 25% 2.2 mph ESE3.5 kmh ESE 3.8 mph6.1 kmh 29.81 in1009.5 mb 0.00 in0.0 mm 0.00 in0.0 mm 0.00 in0.0 mm
01:45 PM 75.6°F24.2°C 35.2°F1.8°C 23% 1.6 mph N2.6 kmh N 3.8 mph6.1 kmh 29.81 in1009.5 mb 0.00 in0.0 mm 0.00 in0.0 mm 0.00 in0.0 mm
01:40 PM 73.8°F23.2°C 33.7°F0.9°C 23% 0.7 mph WSW1.1 kmh WSW 3.8 mph6.1 kmh 29.81 in1009.5 mb 0.00 in0.0 mm 0.00 in0.0 mm 0.00 in0.0 mm
01:35 PM 75.0°F23.9°C 34.7°F1.5°C 23% 0.7 mph WSW1.1 kmh WSW 7.6 mph12.2 kmh 29.81 in1009.5 mb 0.00 in0.0 mm 0.00 in0.0 mm 0.00 in0.0 mm
01:30 PM 74.1°F23.4°C 34.0°F1.1°C 23% 1.6 mph WSW2.6 kmh WSW 7.6 mph12.2 kmh 29.81 in1009.5 mb 0.00 in0.0 mm 0.00 in0.0 mm 0.00 in0.0 mm
01:25 PM 74.7°F23.7°C 36.5°F2.5°C 25% 5.4 mph W8.7 kmh W 6.9 mph11.1 kmh 29.82 in1009.8 mb 0.00 in0.0 mm 0.00 in0.0 mm 0.00 in0.0 mm
01:20 PM 74.7°F23.7°C 35.5°F1.9°C 24% Calm Calm 6.9 mph11.1 kmh 29.82 in1009.8 mb 0.00 in0.0 mm 0.00 in0.0 mm 0.00 in0.0 mm
01:15 PM 73.6°F23.1°C 33.5°F0.8°C 23% 1.6 mph WNW2.6 kmh WNW 6.9 mph11.1 kmh 29.82 in1009.8 mb 0.00 in0.0 mm 0.00 in0.0 mm 0.00 in0.0 mm
01:10 PM 74.3°F23.5°C 35.2°F1.8°C 24% 0.7 mph N1.1 kmh N 4.5 mph7.2 kmh 29.82 in1009.8 mb 0.00 in0.0 mm 0.00 in0.0 mm 0.00 in0.0 mm
01:05 PM 74.1°F23.4°C 36.1°F2.3°C 25% 3.1 mph ESE5.0 kmh ESE 4.5 mph7.2 kmh 29.82 in1009.8 mb 0.00 in0.0 mm 0.00 in0.0 mm 0.00 in0.0 mm
01:00 PM 76.3°F24.6°C 38.9°F3.8°C 26% Calm Calm 3.8 mph6.1 kmh 29.83 in1010.2 mb 0.00 in0.0 mm 0.00 in0.0 mm 0.00 in0.0 mm
12:55 PM 74.1°F23.4°C 39.9°F4.4°C 29% Calm Calm 3.8 mph6.1 kmh 29.83 in1010.2 mb 0.00 in0.0 mm 0.00 in0.0 mm 0.00 in0.0 mm
12:50 PM 75.0°F23.9°C 40.6°F4.8°C 29% 3.1 mph N5.0 kmh N 3.8 mph6.1 kmh 29.83 in1010.2 mb 0.00 in0.0 mm 0.00 in0.0 mm 0.00 in0.0 mm
12:45 PM 73.6°F23.1°C 36.6°F2.6°C 26% 1.6 mph NW2.6 kmh NW 3.1 mph5.0 kmh 29.83 in1010.2 mb 0.00 in0.0 mm 0.00 in0.0 mm 0.00 in0.0 mm
12:40 PM 74.1°F23.4°C 40.7°F4.8°C 30% 0.7 mph SW1.1 kmh SW 6.0 mph9.7 kmh 29.83 in1010.2 mb 0.00 in0.0 mm 0.00 in0.0 mm 0.00 in0.0 mm
12:35 PM 73.6°F23.1°C 39.4°F4.1°C 29% 0.7 mph SW1.1 kmh SW 6.0 mph9.7 kmh 29.83 in1010.2 mb 0.00 in0.0 mm 0.00 in0.0 mm 0.00 in0.0 mm
12:30 PM 75.2°F24.0°C 39.9°F4.4°C 28% 4.5 mph ENE7.2 kmh ENE 6.0 mph9.7 kmh 29.83 in1010.2 mb 0.00 in0.0 mm 0.00 in0.0 mm 0.00 in0.0 mm
12:25 PM 73.0°F22.8°C 38.9°F3.8°C 29% 1.6 mph NW2.6 kmh NW 5.4 mph8.7 kmh 29.83 in1010.2 mb 0.00 in0.0 mm 0.00 in0.0 mm 0.00 in0.0 mm
12:20 PM 72.1°F22.3°C 38.2°F3.4°C 29% 0.7 mph WSW1.1 kmh WSW 5.4 mph8.7 kmh 29.84 in1010.5 mb 0.00 in0.0 mm 0.00 in0.0 mm 0.00 in0.0 mm
12:15 PM 71.2°F21.8°C 37.4°F3.0°C 29% 3.8 mph WSW6.1 kmh WSW 5.4 mph8.7 kmh 29.83 in1010.2 mb 0.00 in0.0 mm 0.00 in0.0 mm 0.00 in0.0 mm
12:10 PM 75.0°F23.9°C 39.7°F4.3°C 28% 3.1 mph SW5.0 kmh SW 6.9 mph11.1 kmh 29.83 in1010.2 mb 0.00 in0.0 mm 0.00 in0.0 mm 0.00 in0.0 mm
12:05 PM 71.8°F22.1°C 38.7°F3.7°C 30% 1.6 mph SW2.6 kmh SW 6.9 mph11.1 kmh 29.84 in1010.5 mb 0.00 in0.0 mm 0.00 in0.0 mm 0.00 in0.0 mm
12:00 PM 72.9°F22.7°C 37.9°F3.3°C 28% 1.6 mph W2.6 kmh W 6.0 mph9.7 kmh 29.84 in1010.5 mb 0.00 in0.0 mm 0.00 in0.0 mm 0.00 in0.0 mm
11:55 AM 74.7°F23.7°C 42.9°F6.1°C 32% 0.7 mph NNW1.1 kmh NNW 3.8 mph6.1 kmh 29.84 in1010.5 mb 0.00 in0.0 mm 0.00 in0.0 mm 0.00 in0.0 mm
11:50 AM 75.0°F23.9°C 41.5°F5.3°C 30% Calm Calm 2.2 mph3.5 kmh 29.84 in1010.5 mb 0.00 in0.0 mm 0.00 in0.0 mm 0.00 in0.0 mm
11:45 AM 75.2°F24.0°C 41.7°F5.4°C 30% Calm Calm 6.0 mph9.7 kmh 29.84 in1010.5 mb 0.00 in0.0 mm 0.00 in0.0 mm 0.00 in0.0 mm
11:40 AM 71.6°F22.0°C 41.8°F5.4°C 34% 0.7 mph NE1.1 kmh NE 7.6 mph12.2 kmh 29.85 in1010.8 mb 0.00 in0.0 mm 0.00 in0.0 mm 0.00 in0.0 mm
11:35 AM 69.3°F20.7°C 41.2°F5.1°C 36% 4.5 mph NE7.2 kmh NE 7.6 mph12.2 kmh 29.85 in1010.8 mb 0.00 in0.0 mm 0.00 in0.0 mm 0.00 in0.0 mm
11:30 AM 72.3°F22.4°C 40.8°F4.9°C 32% 1.6 mph SE2.6 kmh SE 6.0 mph9.7 kmh 29.84 in1010.5 mb 0.00 in0.0 mm 0.00 in0.0 mm 0.00 in0.0 mm
11:25 AM 73.4°F23.0°C 44.9°F7.2°C 36% 2.2 mph SW3.5 kmh SW 4.5 mph7.2 kmh 29.85 in1010.8 mb 0.00 in0.0 mm 0.00 in0.0 mm 0.00 in0.0 mm
11:20 AM 70.7°F21.5°C 43.9°F6.6°C 38% 3.8 mph SSW6.1 kmh SSW 6.0 mph9.7 kmh 29.85 in1010.8 mb 0.00 in0.0 mm 0.00 in0.0 mm 0.00 in0.0 mm
11:15 AM 71.6°F22.0°C 40.2°F4.6°C 32% 3.8 mph SE6.1 kmh SE 6.0 mph9.7 kmh 29.85 in1010.8 mb 0.00 in0.0 mm 0.00 in0.0 mm 0.00 in0.0 mm
11:10 AM 72.7°F22.6°C 41.2°F5.1°C 32% 1.6 mph ESE2.6 kmh ESE 6.0 mph9.7 kmh 29.85 in1010.8 mb 0.00 in0.0 mm 0.00 in0.0 mm 0.00 in0.0 mm
11:05 AM 72.0°F22.2°C 43.6°F6.4°C 36% 1.6 mph NE2.6 kmh NE 6.0 mph9.7 kmh 29.86 in1011.2 mb 0.00 in0.0 mm 0.00 in0.0 mm 0.00 in0.0 mm
11:00 AM 71.4°F21.9°C 40.8°F4.9°C 33% 3.8 mph NE6.1 kmh NE 5.4 mph8.7 kmh 29.86 in1011.2 mb 0.00 in0.0 mm 0.00 in0.0 mm 0.00 in0.0 mm
10:55 AM 71.1°F21.7°C 40.5°F4.7°C 33% 1.6 mph E2.6 kmh E 6.0 mph9.7 kmh 29.86 in1011.2 mb 0.00 in0.0 mm 0.00 in0.0 mm 0.00 in0.0 mm
10:50 AM 72.1°F22.3°C 41.5°F5.3°C 33% 0.7 mph SE1.1 kmh SE 6.0 mph9.7 kmh 29.86 in1011.2 mb 0.00 in0.0 mm 0.00 in0.0 mm 0.00 in0.0 mm
10:45 AM 70.3°F21.3°C 40.7°F4.8°C 34% 3.1 mph ESE5.0 kmh ESE 6.0 mph9.7 kmh 29.86 in1011.2 mb 0.00 in0.0 mm 0.00 in0.0 mm 0.00 in0.0 mm
10:40 AM 71.6°F22.0°C 42.5°F5.8°C 35% 1.6 mph E2.6 kmh E 5.4 mph8.7 kmh 29.86 in1011.2 mb 0.00 in0.0 mm 0.00 in0.0 mm 0.00 in0.0 mm
10:35 AM 72.3°F22.4°C 43.2°F6.2°C 35% 1.6 mph NE2.6 kmh NE 5.4 mph8.7 kmh 29.86 in1011.2 mb 0.00 in0.0 mm 0.00 in0.0 mm 0.00 in0.0 mm
10:30 AM 72.3°F22.4°C 45.3°F7.4°C 38% 3.1 mph WNW5.0 kmh WNW 5.4 mph8.7 kmh 29.86 in1011.2 mb 0.00 in0.0 mm 0.00 in0.0 mm 0.00 in0.0 mm
10:25 AM 72.0°F22.2°C 43.6°F6.4°C 36% Calm Calm 3.8 mph6.1 kmh 29.86 in1011.2 mb 0.00 in0.0 mm 0.00 in0.0 mm 0.00 in0.0 mm
10:20 AM 70.3°F21.3°C 43.6°F6.4°C 38% 2.2 mph E3.5 kmh E 3.8 mph6.1 kmh 29.86 in1011.2 mb 0.00 in0.0 mm 0.00 in0.0 mm 0.00 in0.0 mm
10:15 AM 70.9°F21.6°C 46.0°F7.8°C 41% 0.7 mph SW1.1 kmh SW 3.8 mph6.1 kmh 29.86 in1011.2 mb 0.00 in0.0 mm 0.00 in0.0 mm 0.00 in0.0 mm
10:10 AM 69.1°F20.6°C 42.4°F5.8°C 38% 0.7 mph S1.1 kmh S 6.0 mph9.7 kmh 29.86 in1011.2 mb 0.00 in0.0 mm 0.00 in0.0 mm 0.00 in0.0 mm
10:05 AM 71.4°F21.9°C 45.9°F7.7°C 40% Calm Calm 6.0 mph9.7 kmh 29.87 in1011.5 mb 0.00 in0.0 mm 0.00 in0.0 mm 0.00 in0.0 mm
10:00 AM 69.8°F21.0°C 44.4°F6.9°C 40% 3.8 mph ESE6.1 kmh ESE 6.0 mph9.7 kmh 29.87 in1011.5 mb 0.00 in0.0 mm 0.00 in0.0 mm 0.00 in0.0 mm
09:55 AM 68.9°F20.5°C 45.5°F7.5°C 43% 0.7 mph E1.1 kmh E 5.4 mph8.7 kmh 29.87 in1011.5 mb 0.00 in0.0 mm 0.00 in0.0 mm 0.00 in0.0 mm
09:50 AM 67.8°F19.9°C 45.1°F7.3°C 44% 3.8 mph ENE6.1 kmh ENE 5.4 mph8.7 kmh 29.87 in1011.5 mb 0.00 in0.0 mm 0.00 in0.0 mm 0.00 in0.0 mm
09:45 AM 68.7°F20.4°C 45.3°F7.4°C 43% 0.7 mph N1.1 kmh N 6.0 mph9.7 kmh 29.87 in1011.5 mb 0.00 in0.0 mm 0.00 in0.0 mm 0.00 in0.0 mm
09:40 AM 66.6°F19.2°C 44.6°F7.0°C 45% Calm Calm 6.0 mph9.7 kmh 29.87 in1011.5 mb 0.00 in0.0 mm 0.00 in0.0 mm 0.00 in0.0 mm
09:35 AM 66.4°F19.1°C 45.0°F7.2°C 46% 2.2 mph NNE3.5 kmh NNE 6.9 mph11.1 kmh 29.87 in1011.5 mb 0.00 in0.0 mm 0.00 in0.0 mm 0.00 in0.0 mm
09:30 AM 66.2°F19.0°C 44.8°F7.1°C 46% 2.2 mph N3.5 kmh N 6.9 mph11.1 kmh 29.87 in1011.5 mb 0.00 in0.0 mm 0.00 in0.0 mm 0.00 in0.0 mm
09:25 AM 66.4°F19.1°C 45.0°F7.2°C 46% 2.2 mph N3.5 kmh N 5.4 mph8.7 kmh 29.88 in1011.9 mb 0.00 in0.0 mm 0.00 in0.0 mm 0.00 in0.0 mm
09:20 AM 67.3°F19.6°C 45.2°F7.3°C 45% 2.2 mph NE3.5 kmh NE 4.5 mph7.2 kmh 29.88 in1011.9 mb 0.00 in0.0 mm 0.00 in0.0 mm 0.00 in0.0 mm
09:15 AM 68.7°F20.4°C 45.9°F7.7°C 44% Calm Calm 4.5 mph7.2 kmh 29.88 in1011.9 mb 0.00 in0.0 mm 0.00 in0.0 mm 0.00 in0.0 mm
09:10 AM 66.4°F19.1°C 45.6°F7.6°C 47% 3.1 mph NE5.0 kmh NE 4.5 mph7.2 kmh 29.88 in1011.9 mb 0.00 in0.0 mm 0.00 in0.0 mm 0.00 in0.0 mm
09:05 AM 66.7°F19.3°C 45.9°F7.7°C 47% 0.7 mph E1.1 kmh E 5.4 mph8.7 kmh 29.88 in1011.9 mb 0.00 in0.0 mm 0.00 in0.0 mm 0.00 in0.0 mm
09:00 AM 65.5°F18.6°C 44.2°F6.8°C 46% 3.8 mph E6.1 kmh E 5.4 mph8.7 kmh 29.88 in1011.9 mb 0.00 in0.0 mm 0.00 in0.0 mm 0.00 in0.0 mm
08:55 AM 67.5°F19.7°C 46.0°F7.8°C 46% 0.7 mph E1.1 kmh E 5.4 mph8.7 kmh 29.89 in1012.2 mb 0.00 in0.0 mm 0.00 in0.0 mm 0.00 in0.0 mm
08:50 AM 65.7°F18.7°C 46.0°F7.8°C 49% Calm Calm 5.4 mph8.7 kmh 29.88 in1011.9 mb 0.00 in0.0 mm 0.00 in0.0 mm 0.00 in0.0 mm
08:45 AM 66.6°F19.2°C 46.3°F7.9°C 48% 1.6 mph SE2.6 kmh SE 5.4 mph8.7 kmh 29.88 in1011.9 mb 0.00 in0.0 mm 0.00 in0.0 mm 0.00 in0.0 mm
08:40 AM 65.3°F18.5°C 45.1°F7.3°C 48% 3.1 mph ESE5.0 kmh ESE 5.4 mph8.7 kmh 29.88 in1011.9 mb 0.00 in0.0 mm 0.00 in0.0 mm 0.00 in0.0 mm
08:35 AM 66.6°F19.2°C 47.9°F8.8°C 51% 2.2 mph E3.5 kmh E 6.0 mph9.7 kmh 29.88 in1011.9 mb 0.00 in0.0 mm 0.00 in0.0 mm 0.00 in0.0 mm
08:30 AM 64.6°F18.1°C 46.6°F8.1°C 52% 2.2 mph E3.5 kmh E 6.9 mph11.1 kmh 29.88 in1011.9 mb 0.00 in0.0 mm 0.00 in0.0 mm 0.00 in0.0 mm
08:25 AM 64.0°F17.8°C 45.0°F7.2°C 50% 2.2 mph E3.5 kmh E 6.9 mph11.1 kmh 29.88 in1011.9 mb 0.00 in0.0 mm 0.00 in0.0 mm 0.00 in0.0 mm
08:20 AM 64.2°F17.9°C 46.2°F7.9°C 52% 2.2 mph E3.5 kmh E 5.4 mph8.7 kmh 29.89 in1012.2 mb 0.00 in0.0 mm 0.00 in0.0 mm 0.00 in0.0 mm
08:15 AM 63.7°F17.6°C 44.7°F7.1°C 50% 3.1 mph SE5.0 kmh SE 5.4 mph8.7 kmh 29.89 in1012.2 mb 0.00 in0.0 mm 0.00 in0.0 mm 0.00 in0.0 mm
08:10 AM 64.6°F18.1°C 47.1°F8.4°C 53% Calm Calm 6.0 mph9.7 kmh 29.89 in1012.2 mb 0.00 in0.0 mm 0.00 in0.0 mm 0.00 in0.0 mm
08:05 AM 64.6°F18.1°C 48.5°F9.2°C 56% Calm Calm 6.0 mph9.7 kmh 29.89 in1012.2 mb 0.00 in0.0 mm 0.00 in0.0 mm 0.00 in0.0 mm
08:00 AM 63.1°F17.3°C 48.1°F8.9°C 58% 3.8 mph NE6.1 kmh NE 6.0 mph9.7 kmh 29.89 in1012.2 mb 0.00 in0.0 mm 0.00 in0.0 mm 0.00 in0.0 mm
07:55 AM 63.3°F17.4°C 50.5°F10.3°C 63% Calm Calm 3.1 mph5.0 kmh 29.89 in1012.2 mb 0.00 in0.0 mm 0.00 in0.0 mm 0.00 in0.0 mm
07:50 AM 61.9°F16.6°C 51.6°F10.9°C 69% Calm Calm 3.1 mph5.0 kmh 29.89 in1012.2 mb 0.00 in0.0 mm 0.00 in0.0 mm 0.00 in0.0 mm
07:45 AM 59.7°F15.4°C 50.7°F10.4°C 72% Calm Calm 3.1 mph5.0 kmh 29.89 in1012.2 mb 0.00 in0.0 mm 0.00 in0.0 mm 0.00 in0.0 mm
07:40 AM 58.5°F14.7°C 51.3°F10.7°C 77% Calm Calm 3.1 mph5.0 kmh 29.89 in1012.2 mb 0.00 in0.0 mm 0.00 in0.0 mm 0.00 in0.0 mm
07:35 AM 57.4°F14.1°C 50.6°F10.3°C 78% Calm Calm 3.1 mph5.0 kmh 29.89 in1012.2 mb 0.00 in0.0 mm 0.00 in0.0 mm 0.00 in0.0 mm
07:30 AM 57.4°F14.1°C 50.6°F10.3°C 78% 0.7 mph N1.1 kmh N 2.2 mph3.5 kmh 29.89 in1012.2 mb 0.00 in0.0 mm 0.00 in0.0 mm 0.00 in0.0 mm
07:25 AM 56.7°F13.7°C 50.6°F10.3°C 80% 0.7 mph N1.1 kmh N 3.1 mph5.0 kmh 29.89 in1012.2 mb 0.00 in0.0 mm 0.00 in0.0 mm 0.00 in0.0 mm
07:20 AM 55.9°F13.3°C 49.2°F9.6°C 78% 0.7 mph N1.1 kmh N 3.1 mph5.0 kmh 29.89 in1012.2 mb 0.00 in0.0 mm 0.00 in0.0 mm 0.00 in0.0 mm
07:15 AM 57.2°F14.0°C 53.1°F11.7°C 86% Calm Calm -- 29.89 in1012.2 mb 0.00 in0.0 mm 0.00 in0.0 mm 0.00 in0.0 mm
07:10 AM 54.9°F12.7°C 53.2°F11.8°C 94% Calm Calm -- 29.89 in1012.2 mb 0.00 in0.0 mm 0.00 in0.0 mm 0.00 in0.0 mm
07:05 AM 52.2°F11.2°C 52.2°F11.2°C 100% Calm Calm -- 29.90 in1012.5 mb 0.00 in0.0 mm 0.00 in0.0 mm 0.00 in0.0 mm
07:00 AM 51.3°F10.7°C 51.0°F10.6°C 99% Calm Calm -- 29.90 in1012.5 mb 0.00 in0.0 mm 0.00 in0.0 mm 0.00 in0.0 mm
06:55 AM 50.9°F10.5°C 50.6°F10.3°C 99% Calm Calm -- 29.90 in1012.5 mb 0.00 in0.0 mm 0.00 in0.0 mm 0.00 in0.0 mm
06:50 AM 50.9°F10.5°C 50.6°F10.3°C 99% Calm Calm -- 29.90 in1012.5 mb 0.00 in0.0 mm 0.00 in0.0 mm 0.00 in0.0 mm
06:45 AM 50.9°F10.5°C 50.6°F10.3°C 99% Calm Calm -- 29.89 in1012.2 mb 0.00 in0.0 mm 0.00 in0.0 mm 0.00 in0.0 mm
06:40 AM 50.7°F10.4°C 50.5°F10.3°C 99% Calm Calm -- 29.90 in1012.5 mb 0.00 in0.0 mm 0.00 in0.0 mm 0.00 in0.0 mm
06:35 AM 50.5°F10.3°C 50.3°F10.2°C 99% Calm Calm -- 29.90 in1012.5 mb 0.00 in0.0 mm 0.00 in0.0 mm 0.00 in0.0 mm
06:30 AM 50.2°F10.1°C 49.9°F9.9°C 99% Calm Calm -- 29.90 in1012.5 mb 0.00 in0.0 mm 0.00 in0.0 mm 0.00 in0.0 mm
06:25 AM 50.0°F10.0°C 49.7°F9.8°C 99% Calm Calm -- 29.90 in1012.5 mb 0.00 in0.0 mm 0.00 in0.0 mm 0.00 in0.0 mm
06:20 AM 50.0°F10.0°C 49.7°F9.8°C 99% Calm Calm -- 29.90 in1012.5 mb 0.00 in0.0 mm 0.00 in0.0 mm 0.00 in0.0 mm
06:15 AM 50.0°F10.0°C 49.7°F9.8°C 99% Calm Calm -- 29.90 in1012.5 mb 0.00 in0.0 mm 0.00 in0.0 mm 0.00 in0.0 mm
06:10 AM 50.2°F10.1°C 49.9°F9.9°C 99% Calm Calm -- 29.90 in1012.5 mb 0.00 in0.0 mm 0.00 in0.0 mm 0.00 in0.0 mm
06:05 AM 50.2°F10.1°C 49.9°F9.9°C 99% Calm Calm -- 29.90 in1012.5 mb 0.00 in0.0 mm 0.00 in0.0 mm 0.00 in0.0 mm
06:00 AM 49.8°F9.9°C 49.6°F9.8°C 99% Calm Calm -- 29.90 in1012.5 mb 0.00 in0.0 mm 0.00 in0.0 mm 0.00 in0.0 mm
05:55 AM 49.6°F9.8°C 49.4°F9.7°C 99% Calm Calm -- 29.90 in1012.5 mb 0.00 in0.0 mm 0.00 in0.0 mm 0.00 in0.0 mm
05:50 AM 49.5°F9.7°C 49.2°F9.6°C 99% Calm Calm -- 29.90 in1012.5 mb 0.00 in0.0 mm 0.00 in0.0 mm 0.00 in0.0 mm
05:45 AM 49.1°F9.5°C 48.8°F9.3°C 99% Calm Calm -- 29.90 in1012.5 mb 0.00 in0.0 mm 0.00 in0.0 mm 0.00 in0.0 mm
05:40 AM 50.0°F10.0°C 49.7°F9.8°C 99% Calm Calm -- 29.90 in1012.5 mb 0.00 in0.0 mm 0.00 in0.0 mm 0.00 in0.0 mm
05:35 AM 49.8°F9.9°C 49.6°F9.8°C 99% Calm Calm -- 29.90 in1012.5 mb 0.00 in0.0 mm 0.00 in0.0 mm 0.00 in0.0 mm
05:30 AM 49.5°F9.7°C 49.2°F9.6°C 99% Calm Calm -- 29.90 in1012.5 mb 0.00 in0.0 mm 0.00 in0.0 mm 0.00 in0.0 mm
05:25 AM 49.3°F9.6°C 49.0°F9.4°C 99% Calm Calm -- 29.90 in1012.5 mb 0.00 in0.0 mm 0.00 in0.0 mm 0.00 in0.0 mm
05:20 AM 48.9°F9.4°C 48.7°F9.3°C 99% Calm Calm -- 29.89 in1012.2 mb 0.00 in0.0 mm 0.00 in0.0 mm 0.00 in0.0 mm
05:15 AM 48.2°F9.0°C 47.9°F8.8°C 99% Calm Calm -- 29.90 in1012.5 mb 0.00 in0.0 mm 0.00 in0.0 mm 0.00 in0.0 mm
05:10 AM 48.2°F9.0°C 47.9°F8.8°C 99% Calm Calm -- 29.90 in1012.5 mb 0.00 in0.0 mm 0.00 in0.0 mm 0.00 in0.0 mm
05:05 AM 48.7°F9.3°C 48.5°F9.2°C 99% Calm Calm -- 29.89 in1012.2 mb 0.00 in0.0 mm 0.00 in0.0 mm 0.00 in0.0 mm
05:00 AM 48.6°F9.2°C 48.3°F9.1°C 99% Calm Calm -- 29.90 in1012.5 mb 0.00 in0.0 mm 0.00 in0.0 mm 0.00 in0.0 mm
04:55 AM 48.6°F9.2°C 48.3°F9.1°C 99% Calm Calm -- 29.89 in1012.2 mb 0.00 in0.0 mm 0.00 in0.0 mm 0.00 in0.0 mm
04:50 AM 49.1°F9.5°C 48.8°F9.3°C 99% Calm Calm -- 29.89 in1012.2 mb 0.00 in0.0 mm 0.00 in0.0 mm 0.00 in0.0 mm
04:45 AM 49.5°F9.7°C 49.2°F9.6°C 99% Calm Calm -- 29.90 in1012.5 mb 0.00 in0.0 mm 0.00 in0.0 mm 0.00 in0.0 mm
04:40 AM 49.3°F9.6°C 49.0°F9.4°C 99% Calm Calm -- 29.90 in1012.5 mb 0.00 in0.0 mm 0.00 in0.0 mm 0.00 in0.0 mm
04:35 AM 49.6°F9.8°C 49.4°F9.7°C 99% Calm Calm -- 29.90 in1012.5 mb 0.00 in0.0 mm 0.00 in0.0 mm 0.00 in0.0 mm
04:30 AM 49.6°F9.8°C 49.4°F9.7°C 99% Calm Calm -- 29.89 in1012.2 mb 0.00 in0.0 mm 0.00 in0.0 mm 0.00 in0.0 mm
04:25 AM 49.1°F9.5°C 48.8°F9.3°C 99% Calm Calm -- 29.90 in1012.5 mb 0.00 in0.0 mm 0.00 in0.0 mm 0.00 in0.0 mm
04:20 AM 49.1°F9.5°C 48.8°F9.3°C 99% Calm Calm -- 29.90 in1012.5 mb 0.00 in0.0 mm 0.00 in0.0 mm 0.00 in0.0 mm
04:15 AM 48.9°F9.4°C 48.7°F9.3°C 99% Calm Calm -- 29.90 in1012.5 mb 0.00 in0.0 mm 0.00 in0.0 mm 0.00 in0.0 mm
04:10 AM 49.1°F9.5°C 48.8°F9.3°C 99% Calm Calm -- 29.90 in1012.5 mb 0.00 in0.0 mm 0.00 in0.0 mm 0.00 in0.0 mm
04:05 AM 49.6°F9.8°C 48.8°F9.3°C 97% Calm Calm -- 29.90 in1012.5 mb 0.00 in0.0 mm 0.00 in0.0 mm 0.00 in0.0 mm
04:00 AM 50.4°F10.2°C 48.7°F9.3°C 94% Calm Calm -- 29.90 in1012.5 mb 0.00 in0.0 mm 0.00 in0.0 mm 0.00 in0.0 mm
03:55 AM 50.5°F10.3°C 48.6°F9.2°C 93% Calm Calm -- 29.90 in1012.5 mb 0.00 in0.0 mm 0.00 in0.0 mm 0.00 in0.0 mm
03:50 AM 50.9°F10.5°C 49.0°F9.4°C 93% Calm Calm -- 29.90 in1012.5 mb 0.00 in0.0 mm 0.00 in0.0 mm 0.00 in0.0 mm
03:45 AM 51.1°F10.6°C 49.7°F9.8°C 95% Calm Calm -- 29.91 in1012.9 mb 0.00 in0.0 mm 0.00 in0.0 mm 0.00 in0.0 mm
03:40 AM 50.9°F10.5°C 49.8°F9.9°C 96% Calm Calm -- 29.91 in1012.9 mb 0.00 in0.0 mm 0.00 in0.0 mm 0.00 in0.0 mm
03:35 AM 50.7°F10.4°C 49.9°F9.9°C 97% Calm Calm -- 29.91 in1012.9 mb 0.00 in0.0 mm 0.00 in0.0 mm 0.00 in0.0 mm
03:30 AM 50.2°F10.1°C 50.2°F10.1°C 100% Calm Calm -- 29.90 in1012.5 mb 0.00 in0.0 mm 0.00 in0.0 mm 0.00 in0.0 mm
03:25 AM 49.6°F9.8°C 49.4°F9.7°C 99% Calm Calm -- 29.90 in1012.5 mb 0.00 in0.0 mm 0.00 in0.0 mm 0.00 in0.0 mm
03:20 AM 49.6°F9.8°C 49.4°F9.7°C 99% Calm Calm -- 29.91 in1012.9 mb 0.00 in0.0 mm 0.00 in0.0 mm 0.00 in0.0 mm
03:15 AM 49.6°F9.8°C 49.4°F9.7°C 99% Calm Calm -- 29.91 in1012.9 mb 0.00 in0.0 mm 0.00 in0.0 mm 0.00 in0.0 mm
03:10 AM 49.5°F9.7°C 49.2°F9.6°C 99% Calm Calm -- 29.90 in1012.5 mb 0.00 in0.0 mm 0.00 in0.0 mm 0.00 in0.0 mm
03:05 AM 49.5°F9.7°C 49.2°F9.6°C 99% Calm Calm -- 29.90 in1012.5 mb 0.00 in0.0 mm 0.00 in0.0 mm 0.00 in0.0 mm
03:00 AM 49.6°F9.8°C 49.4°F9.7°C 99% Calm Calm -- 29.90 in1012.5 mb 0.00 in0.0 mm 0.00 in0.0 mm 0.00 in0.0 mm
02:55 AM 49.8°F9.9°C 49.6°F9.8°C 99% Calm Calm -- 29.91 in1012.9 mb 0.00 in0.0 mm 0.00 in0.0 mm 0.00 in0.0 mm
02:50 AM 49.5°F9.7°C 49.2°F9.6°C 99% Calm Calm -- 29.90 in1012.5 mb 0.00 in0.0 mm 0.00 in0.0 mm 0.00 in0.0 mm
02:45 AM 49.1°F9.5°C 48.8°F9.3°C 99% Calm Calm -- 29.91 in1012.9 mb 0.00 in0.0 mm 0.00 in0.0 mm 0.00 in0.0 mm
02:40 AM 48.9°F9.4°C 48.7°F9.3°C 99% Calm Calm -- 29.91 in1012.9 mb 0.00 in0.0 mm 0.00 in0.0 mm 0.00 in0.0 mm
02:35 AM 48.9°F9.4°C 48.7°F9.3°C 99% Calm Calm -- 29.91 in1012.9 mb 0.00 in0.0 mm 0.00 in0.0 mm 0.00 in0.0 mm
02:30 AM 48.6°F9.2°C 48.3°F9.1°C 99% Calm Calm -- 29.91 in1012.9 mb 0.00 in0.0 mm 0.00 in0.0 mm 0.00 in0.0 mm
02:25 AM 48.6°F9.2°C 48.6°F9.2°C 100% Calm Calm -- 29.91 in1012.9 mb 0.00 in0.0 mm 0.00 in0.0 mm 0.00 in0.0 mm
02:20 AM 49.1°F9.5°C 48.0°F8.9°C 96% Calm Calm -- 29.91 in1012.9 mb 0.00 in0.0 mm 0.00 in0.0 mm 0.00 in0.0 mm
02:15 AM 49.8°F9.9°C 48.4°F9.1°C 95% Calm Calm 2.2 mph3.5 kmh 29.91 in1012.9 mb 0.00 in0.0 mm 0.00 in0.0 mm 0.00 in0.0 mm
02:10 AM 50.4°F10.2°C 48.7°F9.3°C 94% Calm Calm 2.2 mph3.5 kmh 29.91 in1012.9 mb 0.00 in0.0 mm 0.00 in0.0 mm 0.00 in0.0 mm
02:05 AM 50.4°F10.2°C 49.0°F9.4°C 95% Calm Calm -- 29.91 in1012.9 mb 0.00 in0.0 mm 0.00 in0.0 mm 0.00 in0.0 mm
02:00 AM 50.4°F10.2°C 49.3°F9.6°C 96% Calm Calm -- 29.91 in1012.9 mb 0.00 in0.0 mm 0.00 in0.0 mm 0.00 in0.0 mm
01:55 AM 50.4°F10.2°C 49.5°F9.7°C 97% Calm Calm -- 29.91 in1012.9 mb 0.00 in0.0 mm 0.00 in0.0 mm 0.00 in0.0 mm
01:50 AM 49.3°F9.6°C 48.5°F9.2°C 97% Calm Calm -- 29.91 in1012.9 mb 0.00 in0.0 mm 0.00 in0.0 mm 0.00 in0.0 mm
01:45 AM 49.1°F9.5°C 47.7°F8.7°C 95% Calm Calm -- 29.91 in1012.9 mb 0.00 in0.0 mm 0.00 in0.0 mm 0.00 in0.0 mm
01:40 AM 49.6°F9.8°C 48.3°F9.1°C 95% Calm Calm -- 29.91 in1012.9 mb 0.00 in0.0 mm 0.00 in0.0 mm 0.00 in0.0 mm
01:35 AM 49.8°F9.9°C 48.4°F9.1°C 95% Calm Calm -- 29.91 in1012.9 mb 0.00 in0.0 mm 0.00 in0.0 mm 0.00 in0.0 mm
01:30 AM 50.4°F10.2°C 48.7°F9.3°C 94% Calm Calm -- 29.91 in1012.9 mb 0.00 in0.0 mm 0.00 in0.0 mm 0.00 in0.0 mm
01:25 AM 50.4°F10.2°C 49.0°F9.4°C 95% Calm Calm -- 29.91 in1012.9 mb 0.00 in0.0 mm 0.00 in0.0 mm 0.00 in0.0 mm
01:20 AM 50.0°F10.0°C 48.6°F9.2°C 95% Calm Calm -- 29.91 in1012.9 mb 0.00 in0.0 mm 0.00 in0.0 mm 0.00 in0.0 mm
01:15 AM 50.2°F10.1°C 48.8°F9.3°C 95% Calm Calm -- 29.91 in1012.9 mb 0.00 in0.0 mm 0.00 in0.0 mm 0.00 in0.0 mm
01:10 AM 49.8°F9.9°C 48.2°F9.0°C 94% Calm Calm -- 29.91 in1012.9 mb 0.00 in0.0 mm 0.00 in0.0 mm 0.00 in0.0 mm
01:05 AM 50.5°F10.3°C 48.3°F9.1°C 92% Calm Calm -- 29.91 in1012.9 mb 0.00 in0.0 mm 0.00 in0.0 mm 0.00 in0.0 mm
01:00 AM 51.1°F10.6°C 49.1°F9.5°C 93% Calm Calm -- 29.91 in1012.9 mb 0.00 in0.0 mm 0.00 in0.0 mm 0.00 in0.0 mm
12:55 AM 50.7°F10.4°C 49.1°F9.5°C 94% Calm Calm -- 29.91 in1012.9 mb 0.00 in0.0 mm 0.00 in0.0 mm 0.00 in0.0 mm
12:50 AM 50.5°F10.3°C 48.6°F9.2°C 93% Calm Calm -- 29.91 in1012.9 mb 0.00 in0.0 mm 0.00 in0.0 mm 0.00 in0.0 mm
12:45 AM 50.2°F10.1°C 48.2°F9.0°C 93% Calm Calm -- 29.91 in1012.9 mb 0.00 in0.0 mm 0.00 in0.0 mm 0.00 in0.0 mm
12:40 AM 50.9°F10.5°C 48.4°F9.1°C 91% Calm Calm -- 29.91 in1012.9 mb 0.00 in0.0 mm 0.00 in0.0 mm 0.00 in0.0 mm
12:35 AM 51.4°F10.8°C 48.9°F9.4°C 91% Calm Calm -- 29.91 in1012.9 mb 0.00 in0.0 mm 0.00 in0.0 mm 0.00 in0.0 mm
12:30 AM 51.4°F10.8°C 49.2°F9.6°C 92% Calm Calm -- 29.91 in1012.9 mb 0.00 in0.0 mm 0.00 in0.0 mm 0.00 in0.0 mm
12:25 AM 51.1°F10.6°C 49.1°F9.5°C 93% Calm Calm -- 29.91 in1012.9 mb 0.00 in0.0 mm 0.00 in0.0 mm 0.00 in0.0 mm
12:20 AM 51.1°F10.6°C 48.8°F9.3°C 92% Calm Calm -- 29.91 in1012.9 mb 0.00 in0.0 mm 0.00 in0.0 mm 0.00 in0.0 mm
12:15 AM 51.4°F10.8°C 49.2°F9.6°C 92% Calm Calm -- 29.91 in1012.9 mb 0.00 in0.0 mm 0.00 in0.0 mm 0.00 in0.0 mm
12:10 AM 51.1°F10.6°C 48.3°F9.1°C 90% Calm Calm -- 29.91 in1012.9 mb 0.00 in0.0 mm 0.00 in0.0 mm 0.00 in0.0 mm
12:05 AM 52.0°F11.1°C 48.2°F9.0°C 87% Calm Calm -- 29.91 in1012.9 mb 0.00 in0.0 mm 0.00 in0.0 mm 0.00 in0.0 mm
12:00 AM 52.3°F11.3°C 49.2°F9.6°C 89% Calm Calm -- 29.91 in1012.9 mb 0.00 in0.0 mm 0.00 in0.0 mm 0.00 in0.0 mm